Time;durP1;ratioP1;P1;durP2;ratioP2;P2;SDS_P1;SDS_P2;PMS_P1;PMS_P2;Temp;Humidity;BMP_temperature;BMP_pressure;BME280_temperature;BME280_humidity;BME280_pressure;Samples;Min_cycle;Max_cycle;Signal;HPM_P1;HPM_P2
2021/07/26 00:00:46;;;;;;;18.10;9.80;;;23.10;82.10;;;;;;5012202;28;20084;-72
2021/07/26 00:03:11;;;;;;;11.80;9.68;;;23.10;82.50;;;;;;5012592;28;20064;-74
2021/07/26 00:05:37;;;;;;;9.43;8.45;;;23.10;82.20;;;;;;5012082;28;20133;-74
2021/07/26 00:08:02;;;;;;;10.57;9.15;;;23.10;81.90;;;;;;5010896;28;20097;-74
2021/07/26 00:10:28;;;;;;;14.05;10.45;;;23.20;81.80;;;;;;5011059;28;20433;-74
2021/07/26 00:12:53;;;;;;;15.75;9.70;;;23.30;81.50;;;;;;5010945;28;20040;-73
2021/07/26 00:15:19;;;;;;;9.75;8.23;;;23.40;81.50;;;;;;5012045;28;20037;-73
2021/07/26 00:17:44;;;;;;;10.55;9.50;;;23.40;81.70;;;;;;5011191;28;20038;-73
2021/07/26 00:20:11;;;;;;;11.32;9.48;;;23.40;81.90;;;;;;5010925;28;20034;-73
2021/07/26 00:22:38;;;;;;;10.93;8.18;;;23.30;82.10;;;;;;5010231;28;20029;-73
2021/07/26 00:25:05;;;;;;;10.52;7.93;;;23.20;82.40;;;;;;5010038;28;20463;-73
2021/07/26 00:27:31;;;;;;;9.70;8.15;;;23.20;82.60;;;;;;5009878;28;20030;-73
2021/07/26 00:29:56;;;;;;;11.48;8.60;;;23.10;82.70;;;;;;5009721;28;20026;-73
2021/07/26 00:32:22;;;;;;;9.57;8.57;;;23.10;82.80;;;;;;5011457;28;20026;-73
2021/07/26 00:34:47;;;;;;;11.57;8.93;;;23.10;83.30;;;;;;5010402;28;20025;-73
2021/07/26 00:37:13;;;;;;;10.80;9.48;;;23.10;83.40;;;;;;5011491;28;20026;-73
2021/07/26 00:39:39;;;;;;;10.15;8.50;;;23.10;83.40;;;;;;5008906;28;20033;-73
2021/07/26 00:42:05;;;;;;;11.65;8.70;;;23.10;83.70;;;;;;5010454;28;20033;-73
2021/07/26 00:44:32;;;;;;;10.75;8.70;;;23.10;83.60;;;;;;5010815;28;20485;-73
2021/07/26 00:46:58;;;;;;;9.23;7.50;;;23.10;83.60;;;;;;5011913;28;20029;-73
2021/07/26 00:49:25;;;;;;;11.88;8.43;;;23.10;83.70;;;;;;5009898;28;20061;-73
2021/07/26 00:51:53;;;;;;;10.80;8.35;;;23.10;83.50;;;;;;5011474;28;20389;-73
2021/07/26 00:54:40;;;;;;;9.93;7.07;;;23.10;84.10;;;;;;5011162;28;20026;-73
2021/07/26 00:57:06;;;;;;;;;;;23.00;84.10;;;;;;5010574;28;20046;-73
2021/07/26 00:59:32;;;;;;;;;;;23.00;83.90;;;;;;5010641;28;20617;-74
2021/07/26 01:01:58;;;;;;;8.87;7.30;;;22.90;83.80;;;;;;5011533;28;19943;-73
2021/07/26 01:04:27;;;;;;;11.02;6.97;;;23.00;83.50;;;;;;5011165;28;20014;-73
2021/07/26 01:06:54;;;;;;;10.73;7.32;;;23.00;83.80;;;;;;5010635;28;20032;-73
2021/07/26 01:09:19;;;;;;;11.57;6.75;;;22.80;83.90;;;;;;5009254;28;20764;-73
2021/07/26 01:11:46;;;;;;;10.35;7.70;;;22.80;84.40;;;;;;5009520;28;20030;-74
2021/07/26 01:14:16;;;;;;;9.93;6.72;;;22.70;85.30;;;;;;5027095;23;20046;-62
2021/07/26 01:16:43;;;;;;;12.82;7.22;;;22.70;86.60;;;;;;4988568;28;20011;-62
2021/07/26 01:19:09;;;;;;;6.90;5.75;;;22.60;87.00;;;;;;4986723;28;20034;-62
2021/07/26 01:21:35;;;;;;;8.60;7.10;;;22.50;87.50;;;;;;4988941;28;20027;-62
2021/07/26 01:24:03;;;;;;;10.77;6.80;;;22.40;88.90;;;;;;5002891;28;20044;-62
2021/07/26 01:26:30;;;;;;;9.30;7.18;;;22.30;88.40;;;;;;4989500;28;20082;-62
2021/07/26 01:29:00;;;;;;;10.45;7.57;;;22.20;89.20;;;;;;4987491;28;20021;-62
2021/07/26 01:31:27;;;;;;;8.95;6.75;;;22.10;90.00;;;;;;4988258;28;20499;-62
2021/07/26 01:33:53;;;;;;;7.97;6.40;;;22.10;90.30;;;;;;4988576;28;20038;-62
2021/07/26 01:36:20;;;;;;;7.75;5.82;;;21.90;90.40;;;;;;4994222;28;20762;-62
2021/07/26 01:38:46;;;;;;;7.82;6.32;;;21.80;90.50;;;;;;4995545;28;20109;-62
2021/07/26 01:41:18;;;;;;;13.27;7.90;;;21.80;90.80;;;;;;4993544;28;20058;-62
2021/07/26 01:44:02;;;;;;;10.82;7.15;;;21.80;90.90;;;;;;4988686;28;20134;-62
2021/07/26 01:46:41;;;;;;;9.18;7.43;;;21.80;91.00;;;;;;4993632;28;20378;-62
2021/07/26 01:49:39;;;;;;;8.48;6.43;;;21.70;91.30;;;;;;4992220;28;20271;-62
2021/07/26 01:52:06;;;;;;;9.52;7.07;;;21.60;91.70;;;;;;4988059;28;20030;-62
2021/07/26 01:54:31;;;;;;;9.57;6.47;;;21.60;91.80;;;;;;4993333;28;20033;-62
2021/07/26 01:56:57;;;;;;;8.45;6.72;;;21.50;91.80;;;;;;4987394;28;20026;-62
2021/07/26 01:59:23;;;;;;;8.38;7.18;;;21.60;91.70;;;;;;4988719;28;20434;-62
2021/07/26 02:01:49;;;;;;;12.32;7.68;;;21.60;91.70;;;;;;4987758;28;20573;-62
2021/07/26 02:04:15;;;;;;;7.93;7.15;;;21.80;91.90;;;;;;4987802;28;20033;-62
2021/07/26 02:06:41;;;;;;;9.27;7.57;;;21.80;91.70;;;;;;4995646;28;20026;-62
2021/07/26 02:09:07;;;;;;;16.35;11.10;;;21.80;91.80;;;;;;4987782;28;20061;-62
2021/07/26 02:11:32;;;;;;;9.75;7.68;;;21.80;91.60;;;;;;4991307;28;20037;-62
2021/07/26 02:13:58;;;;;;;11.23;8.32;;;21.80;91.70;;;;;;4987537;28;20038;-62
2021/07/26 02:16:23;;;;;;;20.52;17.25;;;21.70;91.80;;;;;;4988696;28;20062;-62
2021/07/26 02:18:49;;;;;;;17.23;13.20;;;21.60;91.80;;;;;;4989113;28;20503;-62
2021/07/26 02:21:14;;;;;;;20.65;16.50;;;21.50;91.90;;;;;;4987303;28;20499;-63
2021/07/26 02:23:40;;;;;;;11.88;10.52;;;21.50;91.90;;;;;;4994383;28;20041;-62
2021/07/26 02:26:06;;;;;;;18.08;13.40;;;21.40;92.20;;;;;;4996297;28;20038;-62
2021/07/26 02:28:32;;;;;;;11.35;10.15;;;21.30;92.40;;;;;;4992916;28;20031;-62
2021/07/26 02:30:57;;;;;;;11.75;10.50;;;21.30;92.70;;;;;;4997927;28;20021;-62
2021/07/26 02:33:23;;;;;;;13.10;10.52;;;21.40;92.50;;;;;;4989246;28;20034;-62
2021/07/26 02:35:49;;;;;;;14.82;10.10;;;21.50;92.50;;;;;;4988214;28;20022;-62
2021/07/26 02:38:14;;;;;;;11.48;9.35;;;21.60;92.30;;;;;;4989085;28;20034;-62
2021/07/26 02:40:40;;;;;;;14.45;11.00;;;21.60;92.30;;;;;;4990122;28;20076;-62
2021/07/26 02:43:06;;;;;;;12.63;9.18;;;21.60;92.40;;;;;;4991948;28;20487;-62
2021/07/26 02:45:31;;;;;;;15.20;9.85;;;21.50;92.40;;;;;;4989060;28;20041;-62
2021/07/26 02:47:57;;;;;;;15.75;10.98;;;21.50;92.50;;;;;;4992357;28;20080;-62
2021/07/26 02:50:26;;;;;;;11.93;9.27;;;21.50;92.50;;;;;;4988145;28;20502;-62
2021/07/26 02:52:52;;;;;;;15.70;9.70;;;21.40;92.80;;;;;;4987971;28;20027;-62
2021/07/26 02:55:18;;;;;;;11.95;8.90;;;21.40;92.70;;;;;;4990472;28;20027;-63
2021/07/26 02:57:43;;;;;;;14.88;9.80;;;21.40;92.90;;;;;;4988393;28;20045;-62
2021/07/26 03:00:10;;;;;;;11.27;8.85;;;21.30;92.60;;;;;;4987924;28;20073;-62
2021/07/26 03:02:36;;;;;;;15.57;9.98;;;21.40;92.70;;;;;;4987537;28;20041;-62
2021/07/26 03:05:03;;;;;;;12.73;9.55;;;21.30;92.60;;;;;;4990680;28;20018;-62
2021/07/26 03:07:30;;;;;;;14.25;9.90;;;21.40;92.70;;;;;;4990832;28;20503;-62
2021/07/26 03:09:55;;;;;;;14.30;9.88;;;21.30;92.90;;;;;;4988970;28;20549;-62
2021/07/26 03:12:21;;;;;;;14.27;10.45;;;21.20;93.00;;;;;;4989799;28;20026;-62
2021/07/26 03:14:46;;;;;;;15.40;10.90;;;21.00;93.30;;;;;;5000724;28;20120;-62
2021/07/26 03:17:12;;;;;;;14.82;11.50;;;21.00;93.40;;;;;;5002609;28;20490;-62
2021/07/26 03:19:37;;;;;;;14.23;10.57;;;21.00;93.50;;;;;;4997132;28;20027;-62
2021/07/26 03:22:51;;;;;;;12.95;10.35;;;21.00;93.50;;;;;;4990517;28;20077;-62
2021/07/26 03:25:17;;;;;;;14.75;10.35;;;21.00;93.60;;;;;;4950089;28;20031;-62
2021/07/26 03:27:43;;;;;;;16.48;10.90;;;20.90;93.60;;;;;;4990887;28;20042;-63
2021/07/26 03:30:09;;;;;;;12.13;8.90;;;20.80;93.70;;;;;;4996523;28;20487;-61
2021/07/26 03:32:35;;;;;;;12.75;9.13;;;20.70;93.70;;;;;;4992570;28;20062;-61
2021/07/26 03:35:00;;;;;;;14.88;9.90;;;20.60;93.70;;;;;;4991825;28;20116;-62
2021/07/26 03:37:26;;;;;;;11.25;8.68;;;20.50;94.00;;;;;;4994145;28;20034;-62
2021/07/26 03:39:52;;;;;;;12.20;10.25;;;20.50;94.30;;;;;;4995220;28;20029;-61
2021/07/26 03:42:17;;;;;;;16.75;11.15;;;20.50;94.30;;;;;;4997197;28;20030;-62
2021/07/26 03:44:43;;;;;;;22.90;11.93;;;20.50;94.30;;;;;;4990160;28;20054;-61
2021/07/26 03:47:08;;;;;;;13.68;10.25;;;20.50;94.50;;;;;;4994856;28;20526;-61
2021/07/26 03:49:34;;;;;;;17.02;10.57;;;20.40;94.40;;;;;;4990311;28;20030;-62
2021/07/26 03:51:59;;;;;;;18.05;11.00;;;20.30;94.50;;;;;;4990174;28;20018;-62
2021/07/26 03:54:25;;;;;;;16.38;10.00;;;20.30;94.70;;;;;;4990768;28;20478;-61
2021/07/26 03:56:50;;;;;;;18.58;9.07;;;20.30;94.70;;;;;;4994975;28;20479;-62
2021/07/26 03:59:16;;;;;;;13.68;9.48;;;20.40;94.80;;;;;;4992225;28;20034;-61
2021/07/26 04:01:41;;;;;;;15.82;10.43;;;20.40;94.50;;;;;;4996302;28;20022;-62
2021/07/26 04:04:07;;;;;;;9.05;7.65;;;20.40;94.50;;;;;;4995517;28;20412;-61
2021/07/26 04:06:32;;;;;;;14.02;9.05;;;20.40;94.70;;;;;;4998045;28;20030;-61
2021/07/26 04:08:59;;;;;;;14.35;8.80;;;20.40;94.70;;;;;;4993458;28;20427;-61
2021/07/26 04:11:33;;;;;;;14.07;8.68;;;20.40;94.60;;;;;;4989961;28;20109;-61
2021/07/26 04:14:03;;;;;;;14.95;8.65;;;20.50;94.50;;;;;;4991994;28;20030;-61
2021/07/26 04:16:28;;;;;;;13.38;9.23;;;20.60;94.50;;;;;;4990751;28;20399;-62
2021/07/26 04:18:56;;;;;;;15.02;9.68;;;20.60;94.40;;;;;;4987536;28;20030;-61
2021/07/26 04:21:31;;;;;;;15.98;10.27;;;20.70;94.60;;;;;;4986984;28;20049;-61
2021/07/26 04:23:58;;;;;;;11.40;8.20;;;20.60;94.20;;;;;;4989198;28;20069;-61
2021/07/26 04:26:24;;;;;;;14.85;8.82;;;20.60;94.40;;;;;;4989817;28;20527;-62
2021/07/26 04:28:50;;;;;;;18.02;10.38;;;20.60;94.50;;;;;;4987184;28;20526;-61
2021/07/26 04:31:15;;;;;;;12.95;9.60;;;20.60;94.60;;;;;;4991055;28;20031;-61
2021/07/26 04:33:41;;;;;;;14.40;9.80;;;20.80;94.40;;;;;;4989548;28;20177;-61
2021/07/26 04:36:07;;;;;;;15.82;10.95;;;20.80;94.40;;;;;;4989786;28;20045;-61
2021/07/26 04:38:32;;;;;;;16.90;10.93;;;20.90;94.30;;;;;;4989548;28;20042;-61
2021/07/26 04:40:58;;;;;;;21.92;13.60;;;21.00;94.30;;;;;;4989018;28;20424;-62
2021/07/26 04:43:24;;;;;;;13.00;9.65;;;21.10;94.10;;;;;;4994684;28;20061;-62
2021/07/26 04:45:50;;;;;;;16.85;11.82;;;21.20;94.00;;;;;;4989673;28;20115;-61
2021/07/26 04:48:15;;;;;;;17.08;10.63;;;21.20;93.80;;;;;;4989174;28;20029;-62
2021/07/26 04:50:41;;;;;;;9.98;7.70;;;21.20;93.80;;;;;;5006432;28;20022;-61
2021/07/26 04:53:07;;;;;;;13.20;8.27;;;21.20;93.60;;;;;;4993729;28;20027;-61
2021/07/26 04:55:32;;;;;;;9.50;7.53;;;21.20;93.60;;;;;;4996227;28;20029;-59
2021/07/26 04:57:58;;;;;;;15.98;9.50;;;21.20;93.70;;;;;;4997682;28;20041;-60
2021/07/26 05:00:26;;;;;;;11.40;7.38;;;21.10;93.90;;;;;;4991502;28;20051;-59
2021/07/26 05:02:52;;;;;;;11.30;9.38;;;21.10;93.80;;;;;;5002078;28;20022;-59
2021/07/26 05:05:18;;;;;;;11.50;7.80;;;21.00;93.80;;;;;;5007005;28;20022;-59
2021/07/26 05:07:43;;;;;;;9.15;6.72;;;21.00;93.90;;;;;;4990672;28;20073;-59
2021/07/26 05:10:11;;;;;;;9.23;7.57;;;21.10;93.90;;;;;;4989573;28;20022;-62
2021/07/26 05:12:36;;;;;;;13.77;8.18;;;21.00;93.80;;;;;;4989469;28;20034;-60
2021/07/26 05:15:02;;;;;;;12.27;8.35;;;21.00;93.90;;;;;;4988953;28;20447;-59
2021/07/26 05:17:28;;;;;;;12.25;8.30;;;20.90;93.90;;;;;;4993684;28;20079;-59
2021/07/26 05:19:54;;;;;;;10.38;7.85;;;20.80;94.00;;;;;;4991587;28;20038;-59
2021/07/26 05:22:20;;;;;;;9.13;6.65;;;20.90;94.00;;;;;;4990711;28;20118;-58
2021/07/26 05:24:46;;;;;;;13.65;8.00;;;20.90;94.10;;;;;;4989379;28;20062;-62
2021/07/26 05:27:12;;;;;;;9.75;5.85;;;21.00;94.00;;;;;;4984776;28;20038;-58
2021/07/26 05:29:38;;;;;;;12.65;8.32;;;21.00;94.10;;;;;;4993372;28;20031;-59
2021/07/26 05:32:04;;;;;;;13.25;7.82;;;21.00;94.20;;;;;;4996581;28;20034;-58
2021/07/26 05:34:30;;;;;;;9.13;6.95;;;21.00;94.10;;;;;;4984862;28;20023;-59
2021/07/26 05:36:56;;;;;;;13.73;11.18;;;21.00;94.10;;;;;;5005203;28;20458;-58
2021/07/26 05:39:23;;;;;;;9.05;7.75;;;21.00;94.10;;;;;;4996183;28;20041;-58
2021/07/26 05:41:53;;;;;;;10.50;7.40;;;21.00;94.30;;;;;;4994015;28;20151;-58
2021/07/26 05:44:18;;;;;;;13.73;8.25;;;21.00;94.40;;;;;;4999885;28;20073;-59
2021/07/26 05:46:44;;;;;;;11.02;7.05;;;21.00;94.40;;;;;;5001593;28;20060;-59
2021/07/26 05:49:10;;;;;;;8.65;7.05;;;21.10;94.50;;;;;;4997950;28;20040;-58
2021/07/26 05:51:35;;;;;;;11.63;8.45;;;21.10;94.50;;;;;;5005188;28;20040;-58
2021/07/26 05:54:01;;;;;;;10.48;8.18;;;21.20;94.40;;;;;;4991446;28;20022;-59
2021/07/26 05:56:29;;;;;;;7.70;6.75;;;21.40;94.30;;;;;;4994845;28;20122;-59
2021/07/26 05:58:56;;;;;;;8.20;7.30;;;21.40;94.30;;;;;;4999138;28;20030;-59
2021/07/26 06:01:25;;;;;;;7.93;6.35;;;21.50;94.00;;;;;;4999688;28;20034;-58
2021/07/26 06:03:50;;;;;;;7.65;6.05;;;21.70;93.80;;;;;;4994977;28;20026;-59
2021/07/26 06:06:19;;;;;;;9.65;6.57;;;21.90;93.60;;;;;;4987540;28;20049;-59
2021/07/26 06:08:45;;;;;;;8.80;5.97;;;22.10;93.30;;;;;;4990500;28;20188;-62
2021/07/26 06:11:10;;;;;;;7.35;5.80;;;22.30;93.00;;;;;;4993022;28;20105;-60
2021/07/26 06:13:36;;;;;;;9.35;6.30;;;22.60;92.90;;;;;;4989272;28;20046;-60
2021/07/26 06:16:08;;;;;;;12.35;6.90;;;22.80;92.60;;;;;;4991771;28;20029;-60
2021/07/26 06:18:34;;;;;;;15.68;10.00;;;22.90;92.40;;;;;;4996047;28;20070;-60
2021/07/26 06:21:04;;;;;;;15.80;8.57;;;23.00;91.90;;;;;;4990083;28;20062;-61
2021/07/26 06:23:29;;;;;;;7.20;5.78;;;23.10;91.60;;;;;;4988672;28;20034;-60
2021/07/26 06:25:55;;;;;;;12.18;8.90;;;23.20;91.30;;;;;;4989149;28;20033;-60
2021/07/26 06:28:20;;;;;;;9.40;6.03;;;23.20;91.20;;;;;;4991932;28;20042;-59
2021/07/26 06:30:45;;;;;;;9.05;4.97;;;23.20;91.00;;;;;;4995962;28;20026;-60
2021/07/26 06:33:11;;;;;;;6.57;5.25;;;23.20;90.90;;;;;;4987250;28;20534;-60
2021/07/26 06:35:36;;;;;;;15.10;9.82;;;23.10;90.80;;;;;;4988340;28;20029;-60
2021/07/26 06:38:02;;;;;;;12.55;7.70;;;23.10;90.60;;;;;;4993226;28;20483;-60
2021/07/26 06:40:33;;;;;;;8.75;6.78;;;23.10;90.50;;;;;;4988447;28;20026;-60
2021/07/26 06:42:58;;;;;;;12.65;6.05;;;23.10;90.50;;;;;;4993354;28;20053;-60
2021/07/26 06:45:26;;;;;;;7.45;4.95;;;23.00;90.30;;;;;;4988741;28;20053;-60
2021/07/26 06:47:51;;;;;;;7.72;5.78;;;23.00;90.40;;;;;;4994131;28;20037;-60
2021/07/26 06:50:18;;;;;;;9.45;5.13;;;22.90;90.40;;;;;;4989233;28;20070;-60
2021/07/26 06:52:44;;;;;;;8.00;4.45;;;23.00;90.50;;;;;;4988365;28;20031;-60
2021/07/26 06:55:10;;;;;;;7.65;4.85;;;23.00;90.60;;;;;;4988107;28;20041;-59
2021/07/26 06:57:35;;;;;;;7.05;5.53;;;23.10;90.40;;;;;;4987984;28;20026;-60
2021/07/26 07:00:00;;;;;;;9.00;4.53;;;23.20;90.60;;;;;;4986958;28;20105;-59
2021/07/26 07:02:26;;;;;;;10.25;4.60;;;23.30;90.50;;;;;;4986178;28;20042;-60
2021/07/26 07:04:52;;;;;;;7.85;4.50;;;23.40;90.50;;;;;;4986544;28;20026;-60
2021/07/26 07:07:17;;;;;;;5.20;4.40;;;23.60;90.30;;;;;;4991214;28;20109;-60
2021/07/26 07:09:43;;;;;;;10.35;4.72;;;23.80;90.00;;;;;;4984850;28;20476;-60
2021/07/26 07:12:08;;;;;;;5.22;4.50;;;24.10;89.30;;;;;;4987452;28;20033;-60
2021/07/26 07:14:37;;;;;;;5.07;3.90;;;24.20;88.30;;;;;;5004269;23;20379;-59
2021/07/26 07:17:02;;;;;;;7.57;3.88;;;24.40;87.70;;;;;;4988729;28;20525;-60
2021/07/26 07:19:28;;;;;;;6.38;4.82;;;24.50;87.10;;;;;;5002424;28;20026;-60
2021/07/26 07:21:53;;;;;;;6.88;4.57;;;24.70;87.20;;;;;;4987238;28;20030;-60
2021/07/26 07:24:19;;;;;;;5.03;3.40;;;24.70;86.50;;;;;;4986497;28;20469;-60
2021/07/26 07:26:44;;;;;;;7.35;4.35;;;24.70;85.70;;;;;;4997062;28;20084;-60
2021/07/26 07:29:10;;;;;;;6.38;4.38;;;24.60;85.50;;;;;;4991108;28;20056;-60
2021/07/26 07:31:38;;;;;;;5.13;3.83;;;24.70;85.00;;;;;;4990139;28;20022;-60
2021/07/26 07:34:04;;;;;;;5.88;3.72;;;24.70;85.20;;;;;;4993561;28;20030;-60
2021/07/26 07:36:30;;;;;;;7.40;4.13;;;24.80;84.90;;;;;;4989285;28;20419;-60
2021/07/26 07:38:56;;;;;;;5.65;3.78;;;25.00;84.90;;;;;;4992544;28;20058;-60
2021/07/26 07:41:22;;;;;;;6.93;3.60;;;25.00;83.80;;;;;;4992668;28;20034;-60
2021/07/26 07:43:48;;;;;;;8.07;3.83;;;24.90;83.20;;;;;;4991248;28;20583;-60
2021/07/26 07:46:14;;;;;;;5.05;3.67;;;24.70;83.70;;;;;;4985792;28;20067;-60
2021/07/26 07:48:40;;;;;;;4.68;3.60;;;24.80;84.60;;;;;;5002972;28;20030;-60
2021/07/26 07:51:08;;;;;;;3.53;3.15;;;25.00;84.70;;;;;;4988262;28;20056;-61
2021/07/26 07:53:33;;;;;;;4.68;3.20;;;25.10;84.30;;;;;;4990258;28;20490;-61
2021/07/26 07:55:59;;;;;;;7.60;3.78;;;25.30;83.20;;;;;;4991618;28;20057;-61
2021/07/26 07:58:25;;;;;;;7.00;2.88;;;25.30;82.50;;;;;;4989920;28;20383;-61
2021/07/26 08:00:52;;;;;;;6.55;3.20;;;25.30;82.50;;;;;;4989405;28;20278;-61
2021/07/26 08:03:20;;;;;;;5.03;3.70;;;25.30;82.80;;;;;;4989808;28;20037;-61
2021/07/26 08:05:45;;;;;;;7.43;3.15;;;25.40;81.70;;;;;;4992614;28;20109;-61
2021/07/26 08:08:11;;;;;;;3.25;2.80;;;25.20;77.60;;;;;;4991342;28;20113;-61
2021/07/26 08:10:37;;;;;;;2.65;2.05;;;25.00;79.50;;;;;;4990786;28;20037;-61
2021/07/26 08:13:02;;;;;;;5.00;2.45;;;24.90;78.00;;;;;;4991954;28;20034;-61
2021/07/26 08:15:28;;;;;;;3.38;2.95;;;24.90;78.70;;;;;;4990008;28;20034;-61
2021/07/26 08:17:53;;;;;;;5.32;2.20;;;25.00;79.70;;;;;;4994096;28;20030;-61
2021/07/26 08:20:19;;;;;;;3.45;2.70;;;25.20;77.90;;;;;;4990620;28;20069;-60
2021/07/26 08:22:46;;;;;;;6.05;2.67;;;25.10;78.40;;;;;;4998058;28;20034;-61
2021/07/26 08:25:12;;;;;;;4.68;2.72;;;25.20;77.40;;;;;;4996631;28;20041;-61
2021/07/26 08:27:55;;;;;;;3.25;2.22;;;25.30;77.90;;;;;;4991464;28;20450;-61
2021/07/26 08:30:29;;;;;;;4.20;2.65;;;25.40;76.90;;;;;;4989279;28;20038;-61
2021/07/26 08:32:55;;;;;;;5.80;2.85;;;25.40;76.10;;;;;;4995317;28;20535;-61
2021/07/26 08:35:21;;;;;;;4.22;2.25;;;25.30;75.50;;;;;;4989571;28;20136;-61
2021/07/26 08:37:48;;;;;;;3.55;2.42;;;25.40;76.10;;;;;;4998056;28;20030;-61
2021/07/26 08:40:15;;;;;;;3.75;2.55;;;25.50;74.50;;;;;;4989534;28;20038;-61
2021/07/26 08:42:41;;;;;;;4.03;2.60;;;25.50;74.20;;;;;;4991607;28;20032;-61
2021/07/26 08:45:09;;;;;;;5.00;2.28;;;25.60;73.60;;;;;;4989832;28;20035;-61
2021/07/26 08:47:38;;;;;;;3.65;2.65;;;25.60;73.50;;;;;;4989444;28;20030;-61
2021/07/26 08:50:05;;;;;;;3.90;2.33;;;25.80;74.60;;;;;;4992519;28;20406;-61
2021/07/26 08:52:39;;;;;;;3.15;2.17;;;25.90;73.30;;;;;;4992326;28;20030;-61
2021/07/26 08:55:08;;;;;;;5.03;3.13;;;26.00;74.10;;;;;;4997379;28;20037;-61
2021/07/26 08:57:35;;;;;;;4.07;2.50;;;26.20;73.80;;;;;;4991002;28;20611;-61
2021/07/26 09:00:01;;;;;;;2.83;2.08;;;26.50;73.10;;;;;;4991690;28;20034;-61
2021/07/26 09:02:27;;;;;;;3.67;2.67;;;26.70;72.60;;;;;;4990019;28;20081;-61
2021/07/26 09:04:52;;;;;;;3.33;2.35;;;26.70;69.90;;;;;;4993490;28;20037;-61
2021/07/26 09:07:26;;;;;;;2.55;2.00;;;26.50;69.90;;;;;;4990370;28;20037;-61
2021/07/26 09:09:52;;;;;;;2.85;2.40;;;26.50;71.10;;;;;;4991693;28;20101;-61
2021/07/26 09:12:37;;;;;;;4.93;2.10;;;26.50;70.70;;;;;;4997016;28;20110;-61
2021/07/26 09:15:25;;;;;;;3.40;2.47;;;26.50;69.90;;;;;;4997489;28;20033;-61
2021/07/26 09:17:51;;;;;;;2.85;2.03;;;26.80;70.60;;;;;;4995705;28;20018;-61
2021/07/26 09:20:20;;;;;;;4.03;2.05;;;27.00;71.10;;;;;;4989539;28;20026;-61
2021/07/26 09:22:46;;;;;;;3.60;2.42;;;27.30;70.20;;;;;;5002361;28;20022;-61
2021/07/26 09:25:15;;;;;;;5.72;2.42;;;27.40;70.40;;;;;;5003740;28;20205;-61
2021/07/26 09:27:57;;;;;;;3.00;2.05;;;27.50;68.80;;;;;;4998413;28;20023;-61
2021/07/26 09:30:24;;;;;;;3.88;2.13;;;27.30;68.30;;;;;;4987936;28;20576;-61
2021/07/26 09:32:50;;;;;;;3.50;2.17;;;27.00;67.40;;;;;;4992720;28;20331;-61
2021/07/26 09:35:16;;;;;;;2.88;2.47;;;27.00;68.90;;;;;;4988638;28;20030;-61
2021/07/26 09:37:41;;;;;;;4.07;2.42;;;26.90;68.20;;;;;;4989172;28;20014;-61
2021/07/26 09:40:21;;;;;;;3.47;2.33;;;26.90;67.90;;;;;;4989015;28;20038;-61
2021/07/26 09:42:48;;;;;;;3.42;2.22;;;26.70;68.10;;;;;;4993650;28;20178;-61
2021/07/26 09:45:24;;;;;;;2.58;2.38;;;26.50;68.80;;;;;;4988220;28;20033;-61
2021/07/26 09:48:07;;;;;;;3.70;2.42;;;26.40;69.40;;;;;;4989775;28;20058;-61
2021/07/26 09:50:37;;;;;;;4.55;3.13;;;26.60;69.70;;;;;;4989262;28;20026;-61
2021/07/26 09:53:08;;;;;;;5.32;4.80;;;26.70;69.70;;;;;;5002944;28;20026;-61
2021/07/26 09:55:34;;;;;;;3.53;2.72;;;27.10;69.60;;;;;;5003063;28;20398;-61
2021/07/26 09:58:04;;;;;;;3.25;2.50;;;27.10;68.20;;;;;;5002911;28;20029;-61
2021/07/26 10:00:30;;;;;;;3.67;3.15;;;26.90;67.50;;;;;;5000525;28;20030;-61
2021/07/26 10:02:56;;;;;;;5.25;4.55;;;26.80;68.70;;;;;;4988483;28;20029;-61
2021/07/26 10:05:29;;;;;;;2.63;2.40;;;27.00;68.60;;;;;;4991118;28;20054;-61
2021/07/26 10:07:54;;;;;;;3.40;2.75;;;27.20;67.60;;;;;;4993548;28;20034;-61
2021/07/26 10:10:21;;;;;;;4.78;2.78;;;27.40;67.90;;;;;;4993089;28;20387;-61
2021/07/26 10:12:48;;;;;;;2.88;1.83;;;27.70;68.10;;;;;;4998924;28;20034;-61
2021/07/26 10:15:15;;;;;;;3.88;2.90;;;27.90;66.90;;;;;;4988206;28;20577;-61
2021/07/26 10:17:41;;;;;;;5.00;2.60;;;27.80;66.40;;;;;;5006849;28;20399;-61
2021/07/26 10:20:09;;;;;;;3.80;2.13;;;27.90;66.50;;;;;;4987875;28;20030;-61
2021/07/26 10:22:35;;;;;;;8.18;3.47;;;27.90;65.50;;;;;;4993917;28;20117;-61
2021/07/26 10:25:11;;;;;;;2.83;2.53;;;27.70;66.10;;;;;;4988388;28;20412;-62
2021/07/26 10:27:39;;;;;;;2.88;2.20;;;27.60;65.80;;;;;;4989349;28;20022;-61
2021/07/26 10:30:05;;;;;;;5.63;3.00;;;27.60;67.70;;;;;;5003886;28;20068;-61
2021/07/26 10:32:30;;;;;;;4.57;3.03;;;28.00;67.50;;;;;;4995053;28;20042;-61
2021/07/26 10:35:00;;;;;;;6.93;3.03;;;28.40;66.90;;;;;;4993193;28;20019;-61
2021/07/26 10:37:41;;;;;;;4.10;2.95;;;28.60;65.30;;;;;;4998696;28;20030;-61
2021/07/26 10:40:17;;;;;;;3.40;3.05;;;28.80;67.20;;;;;;4990726;28;20112;-61
2021/07/26 10:42:43;;;;;;;5.10;2.40;;;29.20;65.70;;;;;;4994448;28;20037;-61
2021/07/26 10:45:08;;;;;;;3.97;3.20;;;29.50;63.60;;;;;;4987574;28;20030;-62
2021/07/26 10:47:34;;;;;;;3.50;3.20;;;29.40;63.40;;;;;;4987996;28;20113;-61
2021/07/26 10:50:10;;;;;;;5.70;2.22;;;29.50;63.60;;;;;;4988496;28;20113;-62
2021/07/26 10:52:36;;;;;;;3.78;2.55;;;29.60;63.50;;;;;;4993495;28;20069;-61
2021/07/26 10:55:03;;;;;;;4.40;2.90;;;29.60;62.70;;;;;;4987486;28;20018;-61
2021/07/26 10:57:46;;;;;;;2.60;2.40;;;29.50;61.90;;;;;;4989156;28;20105;-61
2021/07/26 11:00:15;;;;;;;3.60;2.38;;;29.30;59.70;;;;;;4989114;28;20034;-62
2021/07/26 11:02:44;;;;;;;2.92;2.20;;;29.00;62.10;;;;;;5000089;28;20117;-62
2021/07/26 11:05:24;;;;;;;4.10;2.70;;;29.10;62.40;;;;;;4994250;28;20022;-61
2021/07/26 11:08:12;;;;;;;5.32;3.22;;;29.20;62.80;;;;;;4992399;28;20034;-62
2021/07/26 11:10:57;;;;;;;6.35;3.78;;;29.50;61.70;;;;;;4997353;28;20038;-62
2021/07/26 11:13:43;;;;;;;2.60;2.13;;;29.60;60.20;;;;;;4990732;28;20431;-62
2021/07/26 11:16:08;;;;;;;3.72;2.33;;;29.60;61.50;;;;;;4988568;28;20464;-61
2021/07/26 11:18:44;;;;;;;3.33;3.03;;;29.70;59.30;;;;;;5001499;28;20125;-62
2021/07/26 11:21:10;;;;;;;;;;;29.70;59.70;;;;;;5001231;28;20129;-62
2021/07/26 11:23:47;;;;;;;5.90;2.25;;;29.80;59.20;;;;;;4987824;28;20011;-62
2021/07/26 11:26:16;;;;;;;4.43;2.53;;;29.90;58.40;;;;;;4987255;28;20101;-61
2021/07/26 11:28:41;;;;;;;2.60;2.22;;;29.90;58.20;;;;;;4988090;28;20041;-62
2021/07/26 11:31:07;;;;;;;4.57;2.58;;;29.90;57.10;;;;;;4986704;28;20023;-62
2021/07/26 11:33:33;;;;;;;5.45;3.60;;;29.90;56.50;;;;;;4988741;28;20065;-62
2021/07/26 11:36:00;;;;;;;4.45;3.13;;;30.00;58.80;;;;;;4991406;28;20048;-62
2021/07/26 11:38:26;;;;;;;3.42;2.30;;;30.30;57.30;;;;;;5006438;28;20034;-61
2021/07/26 11:40:52;;;;;;;10.88;3.53;;;30.40;57.30;;;;;;4990296;28;20034;-61
2021/07/26 11:43:35;;;;;;;5.90;2.33;;;30.80;55.30;;;;;;4992927;28;20034;-61
2021/07/26 11:46:02;;;;;;;5.40;2.00;;;30.90;55.40;;;;;;4996465;28;20484;-62
2021/07/26 11:48:28;;;;;;;5.13;1.80;;;30.80;53.60;;;;;;5006003;28;20030;-62
2021/07/26 11:50:54;;;;;;;4.90;2.22;;;30.60;54.10;;;;;;4992776;28;20052;-62
2021/07/26 11:53:27;;;;;;;2.17;1.98;;;30.60;54.00;;;;;;5004822;28;20408;-62
2021/07/26 11:55:53;;;;;;;4.85;2.42;;;30.70;55.10;;;;;;4998539;28;20030;-62
2021/07/26 11:58:25;;;;;;;3.13;2.75;;;30.80;54.50;;;;;;4990871;28;20037;-62
2021/07/26 12:00:52;;;;;;;3.80;1.83;;;30.80;54.70;;;;;;4996721;28;20427;-62
2021/07/26 12:03:19;;;;;;;4.53;2.25;;;30.80;53.80;;;;;;4990450;28;20129;-62
2021/07/26 12:05:45;;;;;;;2.45;1.83;;;30.60;54.50;;;;;;4998586;28;20076;-62
2021/07/26 12:08:12;;;;;;;3.35;1.90;;;30.70;54.70;;;;;;4995275;28;20455;-62
2021/07/26 12:10:38;;;;;;;1.85;1.35;;;30.80;53.70;;;;;;4992712;28;20545;-62
2021/07/26 12:13:11;;;;;;;2.33;1.77;;;30.80;53.50;;;;;;5007845;28;20038;-62
2021/07/26 12:15:38;;;;;;;6.03;2.35;;;30.70;53.70;;;;;;4991221;28;20506;-62
2021/07/26 12:18:08;;;;;;;7.07;3.00;;;30.80;52.60;;;;;;5008234;28;20557;-62
2021/07/26 12:20:57;;;;;;;3.97;2.17;;;30.80;53.10;;;;;;5004514;28;20538;-62
2021/07/26 12:23:24;;;;;;;12.13;3.35;;;30.70;53.70;;;;;;5009124;28;20029;-62
2021/07/26 12:25:52;;;;;;;3.63;1.80;;;30.70;52.80;;;;;;5003218;28;20022;-62
2021/07/26 12:28:20;;;;;;;4.65;1.92;;;30.70;52.30;;;;;;5004718;28;20026;-62
2021/07/26 12:30:49;;;;;;;10.95;3.30;;;30.80;53.00;;;;;;4999404;28;20510;-62
2021/07/26 12:33:28;;;;;;;7.10;2.53;;;31.10;53.00;;;;;;4990400;28;20038;-62
2021/07/26 12:36:14;;;;;;;12.52;2.25;;;31.50;52.30;;;;;;5008478;28;20160;-62
2021/07/26 12:38:41;;;;;;;4.43;1.95;;;31.70;51.40;;;;;;5002617;28;20036;-62
2021/07/26 12:41:10;;;;;;;2.72;1.88;;;31.60;49.50;;;;;;5002346;28;20050;-62
2021/07/26 12:43:37;;;;;;;6.45;2.38;;;31.60;50.10;;;;;;5008588;28;20041;-62
2021/07/26 12:46:07;;;;;;;16.42;2.58;;;31.40;50.20;;;;;;5003519;28;20498;-62